Terminal Aerodrome Forecast
Issued by NWS Wilmington, NC

Home | Current Version | Previous Version | Text Only | Print | Product List | Glossary On
Versions: 1 2 3 4 5 6 7 8 9 10 11 12 13
000
FTUS42 KILM 271120
TAFILM
TAF
KILM 271120Z 2712/2812 15005KT P6SM SCT060
     FM271600 13010KT P6SM SCT050
     FM280200 VRB04KT P6SM SCT040
     FM281100 03005KT P6SM VCSH SCT010 BKN100=

USA.gov is the U.S. government's official web portal to all federal, state and local government web resources and services.